This is the latest recevied weather packets stored in our database for station/object NW1E. If no packets are shown the sender has not sent any weather packets the latest 10 day(s).
| Time | Temp. | Humidity | Pressure | Rain* | Wind** | Luminosity | Snow |
|---|---|---|---|---|---|---|---|
| 1777327685 | 30.56° C | 55% | 1014 hPa | 0 mm | - | 102 W/m² | - |
| 1777325877 | 32.78° C | 51% | 1014 hPa | 0 mm | - | 128 W/m² | - |
| 1777317753 | 33.89° C | 49% | 1014.1 hPa | 0 mm | - | 844 W/m² | - |
| 1777313227 | 33.33° C | 52% | 1014.5 hPa | 0 mm | - | 260 W/m² | - |
| 1777311726 | 33.33° C | 53% | 1014.8 hPa | 0 mm | - | 1034 W/m² | - |
| 1777308722 | 32.22° C | 58% | 1015.2 hPa | 0 mm | - | 338 W/m² | - |
| 1777308423 | 31.67° C | 59% | 1015.3 hPa | 0 mm | - | 209 W/m² | - |
| 1777306922 | 30.56° C | 64% | 1015.3 hPa | 0 mm | - | 296 W/m² | - |
| 1777305768 | 31.11° C | 65% | 1015.3 hPa | 0 mm | - | 955 W/m² | - |
| 1777305125 | 30.56° C | 62% | 1015.5 hPa | 0 mm | - | 719 W/m² | - |
| 1777302122 | 29.44° C | 69% | 1015.7 hPa | 0 mm | - | 798 W/m² | - |
| 1777301522 | 28.89° C | 70% | 1015.6 hPa | 0 mm | - | 788 W/m² | - |
| 1777299715 | 27.78° C | 74% | 1015.5 hPa | 0 mm | - | 672 W/m² | - |
| 1777297793 | 26.67° C | 78% | 1015.2 hPa | 0 mm | - | 199 W/m² | - |
| 1777296099 | 25.56° C | 81% | 1015.1 hPa | 0 mm | - | 130 W/m² | - |
| 1777295192 | 25.56° C | 84% | 1015 hPa | 0 mm | - | 445 W/m² | - |
| 1777293692 | 24.44° C | 88% | 1014.7 hPa | 0 mm | - | 327 W/m² | - |
| 1777292794 | 23.89° C | 90% | 1014.7 hPa | 0 mm | - | 232 W/m² | - |
| 1777292681 | 23.89° C | 91% | 1014.6 hPa | 0 mm | - | 51 W/m² | - |
| 1777291884 | 23.33° C | 92% | 1014.4 hPa | 0 mm | - | 44 W/m² | - |
| 1777288865 | 21.67° C | 93% | 1013.9 hPa | 0 mm | - | 21 W/m² | - |
| 1777288563 | 21.67° C | 93% | 1013.8 hPa | 0 mm | - | 18 W/m² | - |
| 1777287962 | 21.67° C | 93% | 1013.9 hPa | 0 mm | - | 11 W/m² | - |
| 1777286763 | 21.11° C | 93% | 1013.7 hPa | 0 mm | - | 0 W/m² | - |
| 1777286464 | 21.11° C | 93% | 1013.7 hPa | 0 mm | - | 0 W/m² | - |
* Rain latest hour (hover to see other rain measurements)
** Current wind speed in m/s (hover to see current wind gust speed)